Terminal Aerodrome Forecast
Issued by NWS Chicago, IL

Home | Current Version | Previous Version | Graphics & Text | Print | Product List | Glossary On
Versions: 1 2 3 4 5 6 7 8 9 10 11 12 13 14 15 16 17 18 19 20 21 22 23 24
003
FTUS43 KLOT 031502 AAA
TAFRFD
TAF AMD
KRFD 031502Z 0315/0412 24013G20KT P6SM VCSH OVC008
      TEMPO 0315/0318 3SM -RASN
     FM031800 29015G25KT P6SM OVC012
     FM040100 29012G17KT P6SM OVC010=

USA.gov is the U.S. government's official web portal to all federal, state and local government web resources and services.